QAK4978 MMSD-MMTJ
Flight info
| Callsign | QAK4978 |
|---|---|
| Flight time | 2h 10m |
| Altitude | 40000 |
| Route | ANEGO1A ANEGO UL312 SQN UT64 TOVES TOVES2B |
| Aircraft | CL60/M-SBDE1E2E3FGHIJ1J4J5J7M3RWXYZ/LB1V1D1 |
Departure
| Time | 2026-04-24 22:55 |
|---|---|
| Airport | Los Cabos International Airport (MMSD) |
Arrival
| Time | 2026-04-25 01:06 |
|---|---|
| Airport | General Abelardo L. Rodriguez International Airport (MMTJ) |
| Time | Latitude | Longitude | Altitude | Speed | Heading |
|---|---|---|---|---|---|
| 2026-04-24 22:27 | 23.16410 | -109.71841 | 380 ft | 0 kts | 177° |
| 2026-04-24 22:47 | 23.16408 | -109.71841 | 380 ft | 0 kts | 187° |
| 2026-04-24 22:47 | 23.16413 | -109.71841 | 380 ft | 2 kts | 173° |
| 2026-04-24 22:47 | 23.16416 | -109.71841 | 380 ft | 0 kts | 172° |
| 2026-04-24 22:48 | 23.16429 | -109.71842 | 380 ft | 2 kts | 169° |
| 2026-04-24 22:48 | 23.16450 | -109.71846 | 380 ft | 2 kts | 179° |
| 2026-04-24 22:49 | 23.16456 | -109.71845 | 381 ft | 0 kts | 199° |
| 2026-04-24 22:49 | 23.16443 | -109.71870 | 381 ft | 6 kts | 268° |
| 2026-04-24 22:49 | 23.16458 | -109.71921 | 381 ft | 8 kts | 342° |
| 2026-04-24 22:49 | 23.16534 | -109.71921 | 382 ft | 12 kts | 359° |
| 2026-04-24 22:50 | 23.16636 | -109.71932 | 382 ft | 16 kts | 351° |
| 2026-04-24 22:50 | 23.16731 | -109.71944 | 383 ft | 7 kts | 349° |
| 2026-04-24 22:50 | 23.16754 | -109.71995 | 384 ft | 9 kts | 263° |
| 2026-04-24 22:50 | 23.16694 | -109.72022 | 384 ft | 11 kts | 174° |
| 2026-04-24 22:51 | 23.16683 | -109.72021 | 384 ft | 0 kts | 175° |
| 2026-04-24 22:53 | 23.16656 | -109.72019 | 384 ft | 6 kts | 175° |
| 2026-04-24 22:54 | 23.16605 | -109.72047 | 384 ft | 11 kts | 264° |
| 2026-04-24 22:54 | 23.16603 | -109.72143 | 387 ft | 12 kts | 258° |
| 2026-04-24 22:54 | 23.16534 | -109.72219 | 388 ft | 16 kts | 207° |
| 2026-04-24 22:54 | 23.16466 | -109.72221 | 388 ft | 15 kts | 175° |
| 2026-04-24 22:55 | 23.15994 | -109.72168 | 382 ft | 107 kts | 174° |
| 2026-04-24 22:55 | 23.14922 | -109.72063 | 532 ft | 159 kts | 175° |
| 2026-04-24 22:55 | 23.13633 | -109.71954 | 896 ft | 196 kts | 175° |
| 2026-04-24 22:55 | 23.12211 | -109.71784 | 1545 ft | 210 kts | 172° |
| 2026-04-24 22:56 | 23.10726 | -109.71595 | 2251 ft | 219 kts | 173° |
| 2026-04-24 22:56 | 23.09192 | -109.71413 | 3019 ft | 230 kts | 173° |
| 2026-04-24 22:56 | 23.07561 | -109.71222 | 3885 ft | 242 kts | 174° |
| 2026-04-24 22:56 | 23.05873 | -109.71024 | 4828 ft | 254 kts | 174° |
| 2026-04-24 22:57 | 23.04089 | -109.70909 | 5852 ft | 261 kts | 187° |
| 2026-04-24 22:57 | 23.02449 | -109.71639 | 6883 ft | 264 kts | 221° |
| 2026-04-24 22:57 | 23.01392 | -109.73228 | 7964 ft | 264 kts | 253° |
| 2026-04-24 22:57 | 23.01244 | -109.75156 | 9057 ft | 261 kts | 284° |
| 2026-04-24 22:58 | 23.02060 | -109.76830 | 10144 ft | 259 kts | 310° |
| 2026-04-24 22:58 | 23.03224 | -109.78297 | 11265 ft | 259 kts | 310° |
| 2026-04-24 22:58 | 23.04386 | -109.79771 | 12144 ft | 269 kts | 309° |
| 2026-04-24 22:58 | 23.05647 | -109.81376 | 12779 ft | 288 kts | 309° |
| 2026-04-24 22:59 | 23.06970 | -109.83060 | 13637 ft | 297 kts | 309° |
| 2026-04-24 22:59 | 23.08296 | -109.84750 | 14614 ft | 301 kts | 309° |
| 2026-04-24 22:59 | 23.11029 | -109.88236 | 16436 ft | 310 kts | 308° |
| 2026-04-24 23:00 | 23.12477 | -109.89990 | 17312 ft | 316 kts | 315° |
| 2026-04-24 23:00 | 23.14277 | -109.91347 | 18156 ft | 323 kts | 325° |
| 2026-04-24 23:00 | 23.16212 | -109.92615 | 19024 ft | 326 kts | 324° |
| 2026-04-24 23:00 | 23.18133 | -109.93883 | 19842 ft | 329 kts | 324° |
| 2026-04-24 23:01 | 23.20104 | -109.95187 | 20663 ft | 332 kts | 324° |
| 2026-04-24 23:01 | 23.22066 | -109.96485 | 21435 ft | 336 kts | 324° |
| 2026-04-24 23:01 | 23.24077 | -109.97818 | 22195 ft | 339 kts | 324° |
| 2026-04-24 23:01 | 23.26108 | -109.99164 | 22928 ft | 342 kts | 323° |
| 2026-04-24 23:02 | 23.28135 | -110.00508 | 23632 ft | 346 kts | 323° |
| 2026-04-24 23:02 | 23.30212 | -110.01887 | 24331 ft | 350 kts | 323° |
| 2026-04-24 23:02 | 23.32283 | -110.03262 | 25009 ft | 354 kts | 323° |
| 2026-04-24 23:02 | 23.34406 | -110.04673 | 25641 ft | 358 kts | 323° |
| 2026-04-24 23:03 | 23.36523 | -110.06081 | 26282 ft | 361 kts | 323° |
| 2026-04-24 23:03 | 23.38688 | -110.07520 | 26902 ft | 365 kts | 323° |
| 2026-04-24 23:03 | 23.40843 | -110.08955 | 27498 ft | 368 kts | 323° |
| 2026-04-24 23:03 | 23.43044 | -110.10420 | 28092 ft | 371 kts | 323° |
| 2026-04-24 23:04 | 23.45238 | -110.11881 | 28629 ft | 374 kts | 322° |
| 2026-04-24 23:04 | 23.47482 | -110.13376 | 29166 ft | 378 kts | 323° |
| 2026-04-24 23:04 | 23.49710 | -110.14861 | 29716 ft | 380 kts | 322° |
| 2026-04-24 23:04 | 23.51979 | -110.16374 | 30266 ft | 381 kts | 322° |
| 2026-04-24 23:05 | 23.54168 | -110.18007 | 30789 ft | 376 kts | 313° |
| 2026-04-24 23:05 | 23.56021 | -110.19961 | 31269 ft | 376 kts | 309° |
| 2026-04-24 23:05 | 23.57888 | -110.21988 | 31730 ft | 378 kts | 310° |
| 2026-04-24 23:05 | 23.59736 | -110.23987 | 32226 ft | 378 kts | 309° |
| 2026-04-24 23:06 | 23.61615 | -110.26021 | 32668 ft | 379 kts | 310° |
| 2026-04-24 23:06 | 23.63473 | -110.28032 | 33086 ft | 381 kts | 309° |
| 2026-04-24 23:06 | 23.65363 | -110.30079 | 33530 ft | 382 kts | 309° |
| 2026-04-24 23:06 | 23.67259 | -110.32133 | 33968 ft | 383 kts | 309° |
| 2026-04-24 23:07 | 23.69128 | -110.34157 | 34461 ft | 382 kts | 309° |
| 2026-04-24 23:07 | 23.70994 | -110.36178 | 34973 ft | 380 kts | 309° |
| 2026-04-24 23:07 | 23.72872 | -110.38212 | 35495 ft | 377 kts | 309° |
| 2026-04-24 23:07 | 23.74736 | -110.40234 | 35974 ft | 375 kts | 309° |
| 2026-04-24 23:08 | 23.76569 | -110.42222 | 36406 ft | 374 kts | 309° |
| 2026-04-24 23:08 | 23.78399 | -110.44207 | 36790 ft | 373 kts | 309° |
| 2026-04-24 23:08 | 23.80246 | -110.46214 | 37128 ft | 373 kts | 309° |
| 2026-04-24 23:08 | 23.82092 | -110.48219 | 37453 ft | 373 kts | 308° |
| 2026-04-24 23:09 | 23.83911 | -110.50196 | 37800 ft | 372 kts | 308° |
| 2026-04-24 23:09 | 23.85754 | -110.52198 | 38153 ft | 370 kts | 308° |
| 2026-04-24 23:09 | 23.87563 | -110.54166 | 38425 ft | 370 kts | 308° |
| 2026-04-24 23:09 | 23.89409 | -110.56169 | 38634 ft | 372 kts | 309° |
| 2026-04-24 23:10 | 23.91333 | -110.58045 | 38904 ft | 374 kts | 312° |
| 2026-04-24 23:10 | 23.93332 | -110.59889 | 39231 ft | 373 kts | 312° |
| 2026-04-24 23:10 | 23.95293 | -110.61704 | 39504 ft | 372 kts | 312° |
| 2026-04-24 23:10 | 23.97273 | -110.63538 | 39808 ft | 371 kts | 312° |
| 2026-04-24 23:11 | 23.99226 | -110.65350 | 39912 ft | 373 kts | 311° |
| 2026-04-24 23:11 | 24.03232 | -110.69074 | 39916 ft | 382 kts | 312° |
| 2026-04-24 23:12 | 24.07325 | -110.72881 | 39918 ft | 391 kts | 312° |
| 2026-04-24 23:12 | 24.11523 | -110.76788 | 39918 ft | 395 kts | 312° |
| 2026-04-24 23:13 | 24.15719 | -110.80695 | 39920 ft | 396 kts | 312° |
| 2026-04-24 23:13 | 24.19906 | -110.84596 | 39918 ft | 394 kts | 311° |
| 2026-04-24 23:14 | 24.24062 | -110.88473 | 39917 ft | 391 kts | 311° |
| 2026-04-24 23:14 | 24.28187 | -110.92324 | 39914 ft | 388 kts | 311° |
| 2026-04-24 23:15 | 24.32297 | -110.96167 | 39904 ft | 387 kts | 311° |
| 2026-04-24 23:15 | 24.36395 | -111.00002 | 39907 ft | 386 kts | 311° |
| 2026-04-24 23:16 | 24.40478 | -111.03827 | 39900 ft | 386 kts | 311° |
| 2026-04-24 23:16 | 24.44559 | -111.07654 | 39894 ft | 385 kts | 311° |
| 2026-04-24 23:17 | 24.48619 | -111.11464 | 39890 ft | 384 kts | 311° |
| 2026-04-24 23:17 | 24.52682 | -111.15282 | 39905 ft | 384 kts | 311° |
| 2026-04-24 23:18 | 24.56744 | -111.19102 | 39911 ft | 384 kts | 311° |
| 2026-04-24 23:18 | 24.60784 | -111.22903 | 39899 ft | 384 kts | 311° |
| 2026-04-24 23:19 | 24.64836 | -111.26720 | 39905 ft | 383 kts | 311° |
| 2026-04-24 23:19 | 24.68883 | -111.30535 | 39903 ft | 383 kts | 311° |
| 2026-04-24 23:20 | 24.72932 | -111.34356 | 39903 ft | 382 kts | 311° |
| 2026-04-24 23:20 | 24.76957 | -111.38157 | 39902 ft | 382 kts | 311° |
| 2026-04-24 23:21 | 24.80993 | -111.41972 | 39906 ft | 381 kts | 311° |
| 2026-04-24 23:21 | 24.85022 | -111.45785 | 39893 ft | 382 kts | 311° |
| 2026-04-24 23:22 | 24.89034 | -111.49583 | 39904 ft | 381 kts | 310° |
| 2026-04-24 23:22 | 24.93103 | -111.53441 | 39891 ft | 382 kts | 310° |
| 2026-04-24 23:23 | 24.97142 | -111.57273 | 39893 ft | 382 kts | 310° |
| 2026-04-24 23:23 | 25.01148 | -111.61076 | 39903 ft | 381 kts | 310° |
| 2026-04-24 23:24 | 25.05218 | -111.64944 | 39896 ft | 380 kts | 310° |
| 2026-04-24 23:24 | 25.09227 | -111.68757 | 39901 ft | 380 kts | 309° |
| 2026-04-24 23:25 | 25.13240 | -111.72578 | 39899 ft | 379 kts | 310° |
| 2026-04-24 23:25 | 25.17212 | -111.76363 | 39901 ft | 379 kts | 310° |
| 2026-04-24 23:26 | 25.21208 | -111.80175 | 39898 ft | 379 kts | 310° |
| 2026-04-24 23:26 | 25.25222 | -111.84008 | 39905 ft | 380 kts | 310° |
| 2026-04-24 23:27 | 25.29237 | -111.87844 | 39905 ft | 381 kts | 310° |
| 2026-04-24 23:27 | 25.33511 | -111.91345 | 39906 ft | 387 kts | 316° |
| 2026-04-24 23:28 | 25.37974 | -111.94730 | 39906 ft | 387 kts | 316° |
| 2026-04-24 23:28 | 25.42419 | -111.98109 | 39905 ft | 386 kts | 316° |
| 2026-04-24 23:29 | 25.46828 | -112.01467 | 39910 ft | 387 kts | 316° |
| 2026-04-24 23:29 | 25.51270 | -112.04855 | 39909 ft | 387 kts | 316° |
| 2026-04-24 23:30 | 25.55717 | -112.08250 | 39903 ft | 387 kts | 316° |
| 2026-04-24 23:30 | 25.60186 | -112.11667 | 39908 ft | 387 kts | 316° |
| 2026-04-24 23:31 | 25.64680 | -112.15108 | 39905 ft | 388 kts | 316° |
| 2026-04-24 23:31 | 25.69169 | -112.18546 | 39907 ft | 387 kts | 316° |
| 2026-04-24 23:32 | 25.73655 | -112.21987 | 39906 ft | 387 kts | 316° |
| 2026-04-24 23:32 | 25.78116 | -112.25413 | 39907 ft | 387 kts | 316° |
| 2026-04-24 23:33 | 25.82567 | -112.28834 | 39907 ft | 388 kts | 316° |
| 2026-04-24 23:33 | 25.87016 | -112.32258 | 39906 ft | 389 kts | 316° |
| 2026-04-24 23:34 | 25.91474 | -112.35691 | 39909 ft | 389 kts | 316° |
| 2026-04-24 23:34 | 25.95924 | -112.39121 | 39907 ft | 389 kts | 316° |
| 2026-04-24 23:35 | 26.00376 | -112.42556 | 39909 ft | 388 kts | 316° |
| 2026-04-24 23:35 | 26.04812 | -112.45982 | 39909 ft | 388 kts | 316° |
| 2026-04-24 23:36 | 26.09254 | -112.49415 | 39900 ft | 387 kts | 316° |
| 2026-04-24 23:36 | 26.13662 | -112.52827 | 39902 ft | 387 kts | 316° |
| 2026-04-24 23:37 | 26.18096 | -112.56261 | 39912 ft | 387 kts | 316° |
| 2026-04-24 23:37 | 26.24753 | -112.61424 | 39892 ft | 389 kts | 316° |
| 2026-04-24 23:38 | 26.29162 | -112.64847 | 39899 ft | 388 kts | 316° |
| 2026-04-24 23:38 | 26.33608 | -112.68302 | 39906 ft | 389 kts | 315° |
| 2026-04-24 23:39 | 26.38061 | -112.71766 | 39904 ft | 389 kts | 315° |
| 2026-04-24 23:39 | 26.42503 | -112.75223 | 39904 ft | 388 kts | 316° |
| 2026-04-24 23:40 | 26.46944 | -112.78684 | 39908 ft | 388 kts | 315° |
| 2026-04-24 23:40 | 26.51337 | -112.82111 | 39897 ft | 387 kts | 315° |
| 2026-04-24 23:41 | 26.55763 | -112.85565 | 39906 ft | 387 kts | 315° |
| 2026-04-24 23:41 | 26.60184 | -112.89021 | 39901 ft | 388 kts | 316° |
| 2026-04-24 23:42 | 26.64612 | -112.92486 | 39899 ft | 388 kts | 315° |
| 2026-04-24 23:42 | 26.69036 | -112.95950 | 39900 ft | 388 kts | 315° |
| 2026-04-24 23:43 | 26.73442 | -112.99403 | 39895 ft | 389 kts | 315° |
| 2026-04-24 23:43 | 26.77876 | -113.02882 | 39903 ft | 389 kts | 316° |
| 2026-04-24 23:44 | 26.82315 | -113.06368 | 39912 ft | 389 kts | 315° |
| 2026-04-24 23:44 | 26.86725 | -113.09834 | 39901 ft | 389 kts | 316° |
| 2026-04-24 23:45 | 26.91169 | -113.13331 | 39895 ft | 390 kts | 316° |
| 2026-04-24 23:45 | 26.95610 | -113.16828 | 39898 ft | 390 kts | 315° |
| 2026-04-24 23:46 | 27.00053 | -113.20331 | 39893 ft | 389 kts | 316° |
| 2026-04-24 23:46 | 27.04489 | -113.23831 | 39898 ft | 389 kts | 316° |
| 2026-04-24 23:47 | 27.08892 | -113.27309 | 39899 ft | 389 kts | 316° |
| 2026-04-24 23:47 | 27.13319 | -113.30810 | 39898 ft | 389 kts | 316° |
| 2026-04-24 23:48 | 27.17748 | -113.34315 | 39900 ft | 388 kts | 316° |
| 2026-04-24 23:48 | 27.22168 | -113.37817 | 39901 ft | 388 kts | 315° |
| 2026-04-24 23:49 | 27.26553 | -113.41295 | 39903 ft | 387 kts | 315° |
| 2026-04-24 23:49 | 27.30956 | -113.44790 | 39905 ft | 387 kts | 315° |
| 2026-04-24 23:50 | 27.35356 | -113.48286 | 39906 ft | 387 kts | 315° |
| 2026-04-24 23:50 | 27.39744 | -113.51776 | 39906 ft | 386 kts | 315° |
| 2026-04-24 23:51 | 27.44128 | -113.55267 | 39901 ft | 386 kts | 315° |
| 2026-04-24 23:51 | 27.48523 | -113.58770 | 39899 ft | 386 kts | 315° |
| 2026-04-24 23:52 | 27.52891 | -113.62255 | 39899 ft | 386 kts | 315° |
| 2026-04-24 23:52 | 27.57275 | -113.65757 | 39906 ft | 386 kts | 315° |
| 2026-04-24 23:53 | 27.61665 | -113.69266 | 39903 ft | 386 kts | 315° |
| 2026-04-24 23:53 | 27.66046 | -113.72772 | 39906 ft | 385 kts | 315° |
| 2026-04-24 23:54 | 27.70414 | -113.76269 | 39907 ft | 384 kts | 315° |
| 2026-04-24 23:54 | 27.74784 | -113.79774 | 39910 ft | 385 kts | 315° |
| 2026-04-24 23:55 | 27.79153 | -113.83281 | 39917 ft | 384 kts | 315° |
| 2026-04-24 23:55 | 27.83511 | -113.86782 | 39916 ft | 384 kts | 315° |
| 2026-04-24 23:56 | 27.87845 | -113.90268 | 39921 ft | 384 kts | 315° |
| 2026-04-24 23:56 | 27.92227 | -113.93795 | 39923 ft | 384 kts | 315° |
| 2026-04-24 23:57 | 27.96600 | -113.97319 | 39926 ft | 384 kts | 315° |
| 2026-04-24 23:57 | 28.00981 | -114.00854 | 39921 ft | 384 kts | 315° |
| 2026-04-24 23:58 | 28.05429 | -114.04286 | 39924 ft | 387 kts | 317° |
| 2026-04-24 23:58 | 28.09933 | -114.07642 | 39916 ft | 386 kts | 317° |
| 2026-04-24 23:59 | 28.14464 | -114.11024 | 39908 ft | 386 kts | 317° |
| 2026-04-24 23:59 | 28.18983 | -114.14401 | 39902 ft | 385 kts | 317° |
| 2026-04-25 00:00 | 28.23495 | -114.17775 | 39904 ft | 384 kts | 317° |
| 2026-04-25 00:00 | 28.27937 | -114.21100 | 39902 ft | 381 kts | 317° |
| 2026-04-25 00:01 | 28.32404 | -114.24448 | 39909 ft | 379 kts | 317° |
| 2026-04-25 00:01 | 28.36778 | -114.27731 | 39924 ft | 378 kts | 316° |
| 2026-04-25 00:02 | 28.41212 | -114.31064 | 39915 ft | 378 kts | 316° |
| 2026-04-25 00:02 | 28.45592 | -114.34359 | 39916 ft | 377 kts | 316° |
| 2026-04-25 00:03 | 28.49981 | -114.37663 | 39922 ft | 377 kts | 316° |
| 2026-04-25 00:03 | 28.54342 | -114.40951 | 39918 ft | 377 kts | 316° |
| 2026-04-25 00:04 | 28.58707 | -114.44244 | 39930 ft | 376 kts | 316° |
| 2026-04-25 00:04 | 28.62993 | -114.47465 | 39909 ft | 354 kts | 316° |
| 2026-04-25 00:05 | 28.65017 | -114.48985 | 39914 ft | 340 kts | 315° |
| 2026-04-25 00:05 | 28.66944 | -114.50437 | 39911 ft | 333 kts | 315° |
| 2026-04-25 00:05 | 28.70725 | -114.53292 | 39908 ft | 316 kts | 315° |
| 2026-04-25 00:06 | 28.72541 | -114.54658 | 39871 ft | 302 kts | 314° |
| 2026-04-25 00:06 | 28.74234 | -114.55929 | 39884 ft | 284 kts | 313° |
| 2026-04-25 00:06 | 28.75824 | -114.57123 | 39893 ft | 267 kts | 313° |
| 2026-04-25 00:06 | 28.77339 | -114.58261 | 39887 ft | 251 kts | 312° |
| 2026-04-25 00:07 | 28.78744 | -114.59319 | 39904 ft | 239 kts | 311° |
| 2026-04-25 00:07 | 28.80139 | -114.60387 | 39910 ft | 239 kts | 311° |
| 2026-04-25 00:07 | 28.81525 | -114.61449 | 39912 ft | 240 kts | 310° |
| 2026-04-25 00:07 | 28.82907 | -114.62508 | 39914 ft | 241 kts | 311° |
| 2026-04-25 00:08 | 28.84317 | -114.63587 | 39906 ft | 242 kts | 311° |
| 2026-04-25 00:08 | 28.85708 | -114.64649 | 39908 ft | 242 kts | 311° |
| 2026-04-25 00:08 | 28.87114 | -114.65723 | 39916 ft | 242 kts | 311° |
| 2026-04-25 00:08 | 28.88508 | -114.66788 | 39915 ft | 242 kts | 311° |
| 2026-04-25 00:09 | 28.89919 | -114.67864 | 39913 ft | 242 kts | 311° |
| 2026-04-25 00:09 | 28.91330 | -114.68938 | 39920 ft | 241 kts | 311° |
| 2026-04-25 00:09 | 28.92721 | -114.70000 | 39907 ft | 241 kts | 310° |
| 2026-04-25 00:09 | 28.94112 | -114.71062 | 39921 ft | 242 kts | 311° |
| 2026-04-25 00:10 | 28.95517 | -114.72136 | 39919 ft | 244 kts | 311° |
| 2026-04-25 00:10 | 28.96954 | -114.73234 | 39913 ft | 246 kts | 311° |
| 2026-04-25 00:10 | 28.98377 | -114.74320 | 39916 ft | 246 kts | 311° |
| 2026-04-25 00:10 | 28.99793 | -114.75399 | 39911 ft | 246 kts | 311° |
| 2026-04-25 00:11 | 29.01225 | -114.76490 | 39914 ft | 245 kts | 311° |
| 2026-04-25 00:11 | 29.02635 | -114.77565 | 39906 ft | 244 kts | 311° |
| 2026-04-25 00:11 | 29.04048 | -114.78643 | 39909 ft | 244 kts | 311° |
| 2026-04-25 00:11 | 29.05456 | -114.79717 | 39913 ft | 243 kts | 310° |
| 2026-04-25 00:12 | 29.06878 | -114.80803 | 39924 ft | 243 kts | 311° |
| 2026-04-25 00:12 | 29.08284 | -114.81879 | 39917 ft | 244 kts | 312° |
| 2026-04-25 00:12 | 29.09688 | -114.82951 | 39918 ft | 245 kts | 311° |
| 2026-04-25 00:12 | 29.11121 | -114.84046 | 39918 ft | 244 kts | 311° |
| 2026-04-25 00:13 | 29.12526 | -114.85120 | 39905 ft | 244 kts | 311° |
| 2026-04-25 00:13 | 29.13947 | -114.86206 | 39923 ft | 244 kts | 311° |
| 2026-04-25 00:13 | 29.15350 | -114.87280 | 39914 ft | 244 kts | 311° |
| 2026-04-25 00:13 | 29.16771 | -114.88367 | 39915 ft | 244 kts | 310° |
| 2026-04-25 00:14 | 29.18172 | -114.89439 | 39908 ft | 244 kts | 311° |
| 2026-04-25 00:14 | 29.19594 | -114.90527 | 39896 ft | 243 kts | 310° |
| 2026-04-25 00:14 | 29.20992 | -114.91597 | 39911 ft | 243 kts | 311° |
| 2026-04-25 00:14 | 29.22388 | -114.92667 | 39908 ft | 243 kts | 311° |
| 2026-04-25 00:15 | 29.23800 | -114.93750 | 39907 ft | 243 kts | 310° |
| 2026-04-25 00:15 | 29.25195 | -114.94819 | 39919 ft | 243 kts | 311° |
| 2026-04-25 00:15 | 29.26615 | -114.95908 | 39904 ft | 243 kts | 310° |
| 2026-04-25 00:15 | 29.28013 | -114.96981 | 39909 ft | 242 kts | 310° |
| 2026-04-25 00:16 | 29.29406 | -114.98048 | 39932 ft | 241 kts | 311° |
| 2026-04-25 00:16 | 29.30815 | -114.99130 | 39912 ft | 242 kts | 310° |
| 2026-04-25 00:16 | 29.32202 | -115.00195 | 39908 ft | 241 kts | 311° |
| 2026-04-25 00:16 | 29.33586 | -115.01257 | 39921 ft | 241 kts | 310° |
| 2026-04-25 00:17 | 29.34990 | -115.02337 | 39925 ft | 241 kts | 311° |
| 2026-04-25 00:17 | 29.36372 | -115.03400 | 39933 ft | 241 kts | 310° |
| 2026-04-25 00:17 | 29.37780 | -115.04483 | 39925 ft | 241 kts | 310° |
| 2026-04-25 00:17 | 29.39166 | -115.05550 | 39929 ft | 241 kts | 311° |
| 2026-04-25 00:18 | 29.40570 | -115.06629 | 39931 ft | 241 kts | 310° |
| 2026-04-25 00:18 | 29.41955 | -115.07695 | 39929 ft | 241 kts | 310° |
| 2026-04-25 00:18 | 29.43359 | -115.08777 | 39932 ft | 241 kts | 311° |
| 2026-04-25 00:18 | 29.44746 | -115.09845 | 39935 ft | 241 kts | 311° |
| 2026-04-25 00:19 | 29.46149 | -115.10925 | 39924 ft | 241 kts | 310° |
| 2026-04-25 00:19 | 29.47533 | -115.11991 | 39934 ft | 241 kts | 310° |
| 2026-04-25 00:19 | 29.48937 | -115.13075 | 39924 ft | 241 kts | 310° |
| 2026-04-25 00:19 | 29.50323 | -115.14143 | 39930 ft | 241 kts | 310° |
| 2026-04-25 00:20 | 29.51706 | -115.15210 | 39930 ft | 241 kts | 310° |
| 2026-04-25 00:20 | 29.53110 | -115.16293 | 39925 ft | 241 kts | 310° |
| 2026-04-25 00:20 | 29.54494 | -115.17361 | 39929 ft | 241 kts | 311° |
| 2026-04-25 00:20 | 29.55896 | -115.18444 | 39928 ft | 241 kts | 310° |
| 2026-04-25 00:21 | 29.57286 | -115.19518 | 39928 ft | 241 kts | 310° |
| 2026-04-25 00:21 | 29.58674 | -115.20590 | 39929 ft | 242 kts | 310° |
| 2026-04-25 00:21 | 29.60087 | -115.21684 | 39923 ft | 243 kts | 310° |
| 2026-04-25 00:21 | 29.61482 | -115.22763 | 39918 ft | 242 kts | 311° |
| 2026-04-25 00:22 | 29.62872 | -115.23837 | 39916 ft | 242 kts | 310° |
| 2026-04-25 00:22 | 29.64279 | -115.24924 | 39932 ft | 241 kts | 310° |
| 2026-04-25 00:22 | 29.65665 | -115.25997 | 39908 ft | 242 kts | 310° |
| 2026-04-25 00:22 | 29.67068 | -115.27083 | 39924 ft | 241 kts | 311° |
| 2026-04-25 00:23 | 29.68454 | -115.28156 | 39918 ft | 242 kts | 311° |
| 2026-04-25 00:23 | 29.69859 | -115.29246 | 39920 ft | 242 kts | 311° |
| 2026-04-25 00:23 | 29.71242 | -115.30317 | 39922 ft | 241 kts | 311° |
| 2026-04-25 00:23 | 29.72640 | -115.31400 | 39926 ft | 241 kts | 310° |
| 2026-04-25 00:24 | 29.74018 | -115.32468 | 39937 ft | 241 kts | 310° |
| 2026-04-25 00:24 | 29.75425 | -115.33562 | 39918 ft | 242 kts | 310° |
| 2026-04-25 00:24 | 29.76812 | -115.34638 | 39922 ft | 242 kts | 311° |
| 2026-04-25 00:24 | 29.78200 | -115.35716 | 39927 ft | 242 kts | 310° |
| 2026-04-25 00:25 | 29.79605 | -115.36807 | 39930 ft | 242 kts | 310° |
| 2026-04-25 00:25 | 29.80992 | -115.37885 | 39921 ft | 242 kts | 310° |
| 2026-04-25 00:25 | 29.82402 | -115.38980 | 39922 ft | 242 kts | 310° |
| 2026-04-25 00:25 | 29.83791 | -115.40060 | 39918 ft | 242 kts | 310° |
| 2026-04-25 00:26 | 29.85200 | -115.41155 | 39929 ft | 242 kts | 310° |
| 2026-04-25 00:26 | 29.86587 | -115.42234 | 39925 ft | 242 kts | 310° |
| 2026-04-25 00:26 | 29.87976 | -115.43316 | 39927 ft | 242 kts | 310° |
| 2026-04-25 00:26 | 29.89386 | -115.44413 | 39926 ft | 242 kts | 310° |
| 2026-04-25 00:27 | 29.90772 | -115.45493 | 39926 ft | 242 kts | 311° |
| 2026-04-25 00:27 | 29.92180 | -115.46589 | 39916 ft | 242 kts | 311° |
| 2026-04-25 00:27 | 29.93565 | -115.47667 | 39922 ft | 241 kts | 310° |
| 2026-04-25 00:27 | 29.94969 | -115.48762 | 39918 ft | 241 kts | 310° |
| 2026-04-25 00:28 | 29.96352 | -115.49841 | 39921 ft | 242 kts | 310° |
| 2026-04-25 00:28 | 29.97756 | -115.50936 | 39920 ft | 242 kts | 310° |
| 2026-04-25 00:28 | 29.99142 | -115.52018 | 39917 ft | 242 kts | 310° |
| 2026-04-25 00:28 | 30.00534 | -115.53104 | 39925 ft | 242 kts | 310° |
| 2026-04-25 00:29 | 30.01940 | -115.54202 | 39918 ft | 242 kts | 310° |
| 2026-04-25 00:29 | 30.03325 | -115.55284 | 39911 ft | 242 kts | 310° |
| 2026-04-25 00:29 | 30.04728 | -115.56380 | 39920 ft | 241 kts | 310° |
| 2026-04-25 00:29 | 30.06109 | -115.57459 | 39919 ft | 241 kts | 310° |
| 2026-04-25 00:30 | 30.07511 | -115.58555 | 39914 ft | 241 kts | 310° |
| 2026-04-25 00:30 | 30.08893 | -115.59637 | 39914 ft | 241 kts | 310° |
| 2026-04-25 00:30 | 30.10279 | -115.60721 | 39911 ft | 241 kts | 309° |
| 2026-04-25 00:30 | 30.11676 | -115.61813 | 39923 ft | 241 kts | 310° |
| 2026-04-25 00:31 | 30.13076 | -115.62910 | 39916 ft | 241 kts | 310° |
| 2026-04-25 00:31 | 30.14455 | -115.63992 | 39917 ft | 241 kts | 310° |
| 2026-04-25 00:31 | 30.15836 | -115.65074 | 39910 ft | 241 kts | 309° |
| 2026-04-25 00:31 | 30.17238 | -115.66174 | 39913 ft | 242 kts | 309° |
| 2026-04-25 00:32 | 30.18626 | -115.67263 | 39913 ft | 242 kts | 310° |
| 2026-04-25 00:32 | 30.20028 | -115.68362 | 39912 ft | 242 kts | 309° |
| 2026-04-25 00:32 | 30.21412 | -115.69448 | 39920 ft | 242 kts | 309° |
| 2026-04-25 00:32 | 30.22816 | -115.70551 | 39909 ft | 242 kts | 309° |
| 2026-04-25 00:33 | 30.24204 | -115.71640 | 39918 ft | 242 kts | 310° |
| 2026-04-25 00:33 | 30.25590 | -115.72729 | 39908 ft | 242 kts | 309° |
| 2026-04-25 00:33 | 30.26993 | -115.73830 | 39926 ft | 241 kts | 310° |
| 2026-04-25 00:33 | 30.28372 | -115.74915 | 39918 ft | 241 kts | 309° |
| 2026-04-25 00:34 | 30.29756 | -115.76002 | 39920 ft | 241 kts | 309° |
| 2026-04-25 00:34 | 30.31155 | -115.77103 | 39934 ft | 241 kts | 309° |
| 2026-04-25 00:34 | 30.32536 | -115.78191 | 39930 ft | 242 kts | 309° |
| 2026-04-25 00:34 | 30.33946 | -115.79301 | 39929 ft | 243 kts | 309° |
| 2026-04-25 00:35 | 30.35337 | -115.80396 | 39922 ft | 242 kts | 309° |
| 2026-04-25 00:35 | 30.36719 | -115.81484 | 39936 ft | 242 kts | 310° |
| 2026-04-25 00:35 | 30.38122 | -115.82590 | 39933 ft | 241 kts | 309° |
| 2026-04-25 00:35 | 30.39511 | -115.83684 | 39933 ft | 241 kts | 309° |
| 2026-04-25 00:36 | 30.40893 | -115.84774 | 39933 ft | 241 kts | 309° |
| 2026-04-25 00:36 | 30.42288 | -115.85875 | 39926 ft | 242 kts | 309° |
| 2026-04-25 00:36 | 30.43672 | -115.86968 | 39920 ft | 241 kts | 309° |
| 2026-04-25 00:36 | 30.45050 | -115.88054 | 39926 ft | 241 kts | 309° |
| 2026-04-25 00:37 | 30.46442 | -115.89153 | 39940 ft | 240 kts | 309° |
| 2026-04-25 00:37 | 30.47817 | -115.90239 | 39936 ft | 241 kts | 309° |
| 2026-04-25 00:37 | 30.49196 | -115.91330 | 39941 ft | 241 kts | 309° |
| 2026-04-25 00:37 | 30.50600 | -115.92441 | 39930 ft | 242 kts | 309° |
| 2026-04-25 00:38 | 30.51984 | -115.93536 | 39935 ft | 242 kts | 309° |
| 2026-04-25 00:38 | 30.53365 | -115.94627 | 39933 ft | 241 kts | 309° |
| 2026-04-25 00:38 | 30.54804 | -115.95690 | 39931 ft | 249 kts | 316° |
| 2026-04-25 00:38 | 30.56395 | -115.96549 | 39936 ft | 255 kts | 319° |
| 2026-04-25 00:39 | 30.58040 | -115.97385 | 39936 ft | 255 kts | 318° |
| 2026-04-25 00:39 | 30.59655 | -115.98212 | 39931 ft | 255 kts | 318° |
| 2026-04-25 00:39 | 30.61270 | -115.99038 | 39933 ft | 255 kts | 318° |
| 2026-04-25 00:39 | 30.62905 | -115.99876 | 39934 ft | 255 kts | 317° |
| 2026-04-25 00:40 | 30.64526 | -116.00708 | 39935 ft | 255 kts | 318° |
| 2026-04-25 00:40 | 30.66148 | -116.01541 | 39932 ft | 255 kts | 318° |
| 2026-04-25 00:40 | 30.67796 | -116.02389 | 39931 ft | 255 kts | 317° |
| 2026-04-25 00:40 | 30.69454 | -116.03246 | 39734 ft | 262 kts | 317° |
| 2026-04-25 00:41 | 30.71123 | -116.04109 | 39395 ft | 261 kts | 319° |
| 2026-04-25 00:41 | 30.72775 | -116.04954 | 39048 ft | 260 kts | 317° |
| 2026-04-25 00:41 | 30.74440 | -116.05808 | 38729 ft | 257 kts | 318° |
| 2026-04-25 00:41 | 30.76067 | -116.06644 | 38364 ft | 256 kts | 317° |
| 2026-04-25 00:42 | 30.77699 | -116.07484 | 38054 ft | 254 kts | 317° |
| 2026-04-25 00:42 | 30.79363 | -116.08346 | 37692 ft | 257 kts | 318° |
| 2026-04-25 00:42 | 30.80994 | -116.09193 | 37373 ft | 264 kts | 319° |
| 2026-04-25 00:42 | 30.82748 | -116.10125 | 37035 ft | 287 kts | 320° |
| 2026-04-25 00:43 | 30.84642 | -116.11130 | 36640 ft | 312 kts | 321° |
| 2026-04-25 00:43 | 30.86689 | -116.12209 | 36200 ft | 337 kts | 322° |
| 2026-04-25 00:43 | 30.88943 | -116.13391 | 35706 ft | 362 kts | 323° |
| 2026-04-25 00:43 | 30.91302 | -116.14623 | 35212 ft | 386 kts | 324° |
| 2026-04-25 00:44 | 30.93864 | -116.15958 | 34665 ft | 410 kts | 325° |
| 2026-04-25 00:44 | 30.96542 | -116.17348 | 34100 ft | 432 kts | 326° |
| 2026-04-25 00:44 | 30.99403 | -116.18832 | 33508 ft | 450 kts | 326° |
| 2026-04-25 00:44 | 31.02441 | -116.20404 | 32874 ft | 464 kts | 327° |
| 2026-04-25 00:45 | 31.05506 | -116.21984 | 32233 ft | 465 kts | 327° |
| 2026-04-25 00:45 | 31.08602 | -116.23575 | 31574 ft | 458 kts | 327° |
| 2026-04-25 00:45 | 31.11632 | -116.25135 | 30948 ft | 452 kts | 327° |
| 2026-04-25 00:45 | 31.14581 | -116.26658 | 30331 ft | 448 kts | 327° |
| 2026-04-25 00:46 | 31.17564 | -116.28205 | 29700 ft | 452 kts | 327° |
| 2026-04-25 00:46 | 31.20630 | -116.29801 | 29067 ft | 460 kts | 328° |
| 2026-04-25 00:46 | 31.26734 | -116.32976 | 27792 ft | 461 kts | 328° |
| 2026-04-25 00:47 | 31.29675 | -116.34505 | 27182 ft | 456 kts | 328° |
| 2026-04-25 00:47 | 31.32544 | -116.35998 | 26583 ft | 452 kts | 328° |
| 2026-04-25 00:47 | 31.35422 | -116.37498 | 25987 ft | 449 kts | 329° |
| 2026-04-25 00:47 | 31.38274 | -116.38987 | 25391 ft | 447 kts | 329° |
| 2026-04-25 00:48 | 31.41111 | -116.40470 | 24802 ft | 444 kts | 329° |
| 2026-04-25 00:48 | 31.43989 | -116.41975 | 24206 ft | 442 kts | 329° |
| 2026-04-25 00:48 | 31.46797 | -116.43446 | 23619 ft | 439 kts | 329° |
| 2026-04-25 00:48 | 31.49594 | -116.44910 | 23045 ft | 437 kts | 329° |
| 2026-04-25 00:49 | 31.52350 | -116.46353 | 22467 ft | 435 kts | 330° |
| 2026-04-25 00:49 | 31.55192 | -116.47846 | 21882 ft | 441 kts | 330° |
| 2026-04-25 00:49 | 31.58078 | -116.49365 | 21272 ft | 449 kts | 330° |
| 2026-04-25 00:49 | 31.60918 | -116.50857 | 20684 ft | 448 kts | 330° |
| 2026-04-25 00:50 | 31.63769 | -116.52354 | 20077 ft | 444 kts | 330° |
| 2026-04-25 00:50 | 31.66545 | -116.53812 | 19495 ft | 439 kts | 330° |
| 2026-04-25 00:50 | 31.69376 | -116.55300 | 18901 ft | 435 kts | 330° |
| 2026-04-25 00:50 | 31.72280 | -116.56828 | 18295 ft | 430 kts | 331° |
| 2026-04-25 00:51 | 31.75226 | -116.58380 | 17668 ft | 425 kts | 331° |
| 2026-04-25 00:51 | 31.78048 | -116.59868 | 17106 ft | 422 kts | 331° |
| 2026-04-25 00:51 | 31.80767 | -116.61224 | 16527 ft | 421 kts | 333° |
| 2026-04-25 00:51 | 31.83466 | -116.62467 | 15963 ft | 417 kts | 334° |
| 2026-04-25 00:52 | 31.86188 | -116.63718 | 15437 ft | 401 kts | 334° |
| 2026-04-25 00:52 | 31.88766 | -116.64902 | 14888 ft | 387 kts | 333° |
| 2026-04-25 00:52 | 31.91241 | -116.66042 | 14379 ft | 374 kts | 333° |
| 2026-04-25 00:52 | 31.93673 | -116.67163 | 13894 ft | 363 kts | 333° |
| 2026-04-25 00:53 | 31.96035 | -116.68253 | 13372 ft | 351 kts | 333° |
| 2026-04-25 00:53 | 31.98294 | -116.69295 | 12940 ft | 335 kts | 333° |
| 2026-04-25 00:53 | 32.00436 | -116.70284 | 12505 ft | 322 kts | 333° |
| 2026-04-25 00:53 | 32.02570 | -116.71270 | 12128 ft | 310 kts | 333° |
| 2026-04-25 00:54 | 32.04629 | -116.72224 | 11694 ft | 302 kts | 333° |
| 2026-04-25 00:54 | 32.06560 | -116.73119 | 11254 ft | 294 kts | 333° |
| 2026-04-25 00:54 | 32.08429 | -116.73987 | 10898 ft | 281 kts | 333° |
| 2026-04-25 00:54 | 32.10241 | -116.74831 | 10554 ft | 270 kts | 333° |
| 2026-04-25 00:55 | 32.11986 | -116.75645 | 10172 ft | 262 kts | 333° |
| 2026-04-25 00:55 | 32.13679 | -116.76388 | 9836 ft | 255 kts | 338° |
| 2026-04-25 00:55 | 32.15424 | -116.76810 | 9513 ft | 244 kts | 348° |
| 2026-04-25 00:55 | 32.17088 | -116.76827 | 9179 ft | 233 kts | 360° |
| 2026-04-25 00:56 | 32.18652 | -116.76508 | 8907 ft | 226 kts | 9° |
| 2026-04-25 00:56 | 32.20159 | -116.75872 | 8531 ft | 220 kts | 19° |
| 2026-04-25 00:56 | 32.21543 | -116.75127 | 8280 ft | 210 kts | 19° |
| 2026-04-25 00:56 | 32.22895 | -116.74407 | 7981 ft | 213 kts | 20° |
| 2026-04-25 00:57 | 32.24269 | -116.73675 | 7709 ft | 218 kts | 20° |
| 2026-04-25 00:57 | 32.25700 | -116.72911 | 7401 ft | 224 kts | 20° |
| 2026-04-25 00:57 | 32.27193 | -116.72110 | 7084 ft | 224 kts | 20° |
| 2026-04-25 00:57 | 32.28690 | -116.71304 | 6773 ft | 223 kts | 21° |
| 2026-04-25 00:58 | 32.30124 | -116.70531 | 6578 ft | 221 kts | 21° |
| 2026-04-25 00:58 | 32.31556 | -116.69759 | 6503 ft | 220 kts | 21° |
| 2026-04-25 00:58 | 32.33037 | -116.68959 | 6384 ft | 223 kts | 21° |
| 2026-04-25 00:58 | 32.34531 | -116.68151 | 6184 ft | 219 kts | 21° |
| 2026-04-25 00:59 | 32.35967 | -116.67436 | 6035 ft | 218 kts | 15° |
| 2026-04-25 00:59 | 32.37526 | -116.67061 | 5846 ft | 214 kts | 1° |
| 2026-04-25 00:59 | 32.39110 | -116.67176 | 5684 ft | 210 kts | 346° |
| 2026-04-25 00:59 | 32.40620 | -116.67777 | 5514 ft | 203 kts | 331° |
| 2026-04-25 01:00 | 32.41880 | -116.68755 | 5361 ft | 192 kts | 317° |
| 2026-04-25 01:00 | 32.42869 | -116.70010 | 5206 ft | 187 kts | 304° |
| 2026-04-25 01:00 | 32.43570 | -116.71464 | 5061 ft | 184 kts | 292° |
| 2026-04-25 01:00 | 32.44034 | -116.73061 | 4855 ft | 185 kts | 287° |
| 2026-04-25 01:01 | 32.44458 | -116.74663 | 4622 ft | 181 kts | 287° |
| 2026-04-25 01:01 | 32.44858 | -116.76195 | 4321 ft | 167 kts | 286° |
| 2026-04-25 01:01 | 32.45226 | -116.77613 | 4083 ft | 160 kts | 286° |
| 2026-04-25 01:01 | 32.45587 | -116.79008 | 3826 ft | 159 kts | 286° |
| 2026-04-25 01:02 | 32.45952 | -116.80420 | 3595 ft | 165 kts | 287° |
| 2026-04-25 01:02 | 32.46355 | -116.81918 | 3349 ft | 177 kts | 290° |
| 2026-04-25 01:02 | 32.47006 | -116.83347 | 3074 ft | 181 kts | 305° |
| 2026-04-25 01:02 | 32.47985 | -116.84489 | 2838 ft | 183 kts | 321° |
| 2026-04-25 01:03 | 32.49229 | -116.85263 | 2541 ft | 180 kts | 336° |
| 2026-04-25 01:03 | 32.50439 | -116.85802 | 2307 ft | 156 kts | 336° |
| 2026-04-25 01:03 | 32.51384 | -116.86385 | 2081 ft | 132 kts | 322° |
| 2026-04-25 01:03 | 32.52121 | -116.87140 | 1907 ft | 130 kts | 310° |
| 2026-04-25 01:04 | 32.52676 | -116.88060 | 1714 ft | 125 kts | 296° |
| 2026-04-25 01:04 | 32.53029 | -116.89110 | 1539 ft | 125 kts | 284° |
| 2026-04-25 01:04 | 32.53195 | -116.90212 | 1351 ft | 124 kts | 278° |
| 2026-04-25 01:04 | 32.53338 | -116.91283 | 1195 ft | 124 kts | 278° |
| 2026-04-25 01:05 | 32.53487 | -116.92359 | 1018 ft | 124 kts | 277° |
| 2026-04-25 01:05 | 32.53637 | -116.93431 | 852 ft | 124 kts | 277° |
| 2026-04-25 01:05 | 32.53780 | -116.94526 | 674 ft | 124 kts | 277° |
| 2026-04-25 01:05 | 32.53931 | -116.95634 | 488 ft | 120 kts | 276° |
| 2026-04-25 01:06 | 32.54043 | -116.96542 | 473 ft | 77 kts | 279° |
| 2026-04-25 01:06 | 32.54102 | -116.96971 | 466 ft | 23 kts | 278° |
| 2026-04-25 01:06 | 32.54126 | -116.97139 | 465 ft | 20 kts | 284° |
| 2026-04-25 01:06 | 32.54212 | -116.97311 | 466 ft | 16 kts | 308° |
| 2026-04-25 01:07 | 32.54251 | -116.97368 | 466 ft | 8 kts | 309° |
| 2026-04-25 01:07 | 32.54301 | -116.97443 | 467 ft | 12 kts | 307° |
| 2026-04-25 01:07 | 32.54346 | -116.97552 | 469 ft | 14 kts | 277° |
| 2026-04-25 01:07 | 32.54364 | -116.97694 | 471 ft | 16 kts | 279° |
| 2026-04-25 01:08 | 32.54385 | -116.97840 | 474 ft | 17 kts | 279° |
| 2026-04-25 01:09 | 32.54400 | -116.97965 | 477 ft | 16 kts | 277° |
| 2026-04-25 01:09 | 32.54402 | -116.97984 | 477 ft | 16 kts | 277° |
| 2026-04-25 01:09 | 32.54414 | -116.98127 | 481 ft | 17 kts | 277° |
| 2026-04-25 01:09 | 32.54432 | -116.98237 | 484 ft | 17 kts | 283° |
| 2026-04-25 01:10 | 32.54445 | -116.98307 | 486 ft | 17 kts | 281° |
| 2026-04-25 01:10 | 32.54449 | -116.98333 | 487 ft | 17 kts | 279° |
| 2026-04-25 01:10 | 32.54462 | -116.98438 | 489 ft | 18 kts | 275° |
| 2026-04-25 01:10 | 32.54462 | -116.98462 | 490 ft | 15 kts | 263° |
| 2026-04-25 01:11 | 32.54396 | -116.98522 | 491 ft | 15 kts | 195° |
| 2026-04-25 01:11 | 32.54304 | -116.98497 | 491 ft | 9 kts | 98° |
| 2026-04-25 01:11 | 32.54281 | -116.98323 | 487 ft | 33 kts | 99° |
| 2026-04-25 01:11 | 32.54248 | -116.98084 | 481 ft | 28 kts | 98° |
| 2026-04-25 01:12 | 32.54213 | -116.97798 | 474 ft | 34 kts | 95° |
| 2026-04-25 01:12 | 32.54249 | -116.97691 | 471 ft | 5 kts | 327° |
| 2026-04-25 01:12 | 32.54291 | -116.97734 | 472 ft | 9 kts | 311° |
| 2026-04-25 01:12 | 32.54356 | -116.97824 | 474 ft | 16 kts | 310° |
| 2026-04-25 01:13 | 32.54400 | -116.97965 | 477 ft | 7 kts | 277° |
| 2026-04-25 01:13 | 32.54435 | -116.98019 | 478 ft | 9 kts | 8° |
| 2026-04-25 01:13 | 32.54523 | -116.98003 | 477 ft | 6 kts | 2° |
| 2026-04-25 01:13 | 32.54551 | -116.98051 | 478 ft | 7 kts | 283° |
| 2026-04-25 01:14 | 32.54561 | -116.98116 | 481 ft | 5 kts | 279° |
| 2026-04-25 01:14 | 32.54566 | -116.98162 | 484 ft | 8 kts | 275° |
| 2026-04-25 01:14 | 32.54534 | -116.98234 | 485 ft | 9 kts | 172° |
| 2026-04-25 01:14 | 32.54507 | -116.98147 | 482 ft | 3 kts | 96° |
| 2026-04-25 01:15 | 32.54487 | -116.98112 | 480 ft | 1 kts | 19° |
| 2026-04-25 01:15 | 32.54495 | -116.98108 | 480 ft | 3 kts | 24° |
| 2026-04-25 01:15 | 32.54496 | -116.98049 | 478 ft | 10 kts | 100° |
| 2026-04-25 01:16 | 32.54518 | -116.98021 | 477 ft | 0 kts | 10° |